Greenwater, Washington
Current Conditions -  °F | °C
As of 7:53 AM on Sunday 21 Dec 2014 (Local Time) from KRNT Reporting Station
Overcast Overcast  
Wind Chill: 52°   Ceiling: 2000
Heat Index: 52°   Visibility: 10mi
Dew Point: 47°   Wind: 9mph
Humidity: 83%   Direction: 180°S
Pressure: 29.84"   Gusts: NA
Location:  47.1782°N, 121.641°W
Report Text: KRNT 211553Z 18008KT 10SM OVC020 11/08 A2984 RMK AO2 SLP110 T01110083 $
Loading
Personal Weather Stations






























Interactive Weather Map New forecast layout! Learn more

10-Day Weather Forecast

Advertisements
Track Severe Weather on mobile